Portada
METAR-TAF:

METAR-TAF

Aeroports :

Tallahassee Regional Airport

Tallahassee, Florida, Estats Units d'Amèrica

latitud: 30-23-35N, longitud: 084-21-12W, altitud: 24 m

Observació

L'informe es va fer fa 24 minuts, a les 10:53 UTC
Vent calma
Temperatura -2°C
Humitat 93%
Pressió 1027 hPa
Visibilitat: 16.1 km
Cel clar

METAR: KTLH 191053Z 00000KT 10SM CLR M02/M03 A3032 RMK AO2 SLP267 T10171028

Hora: 06:17 (11:17 UTC)

Pronòstic

L'informe es va fer fa 5 hores i 56 minuts, a les 05:21 UTC
Pronòstic vàlid del 19 a les 06 UTC al 20 a les 06 UTC
Vent 5 kt del Sud/Sud-Est
Visibilitat: 10 km
Cel clar

TAF: KTLH 190521Z 1906/2006 16005KT P6SM SKC

Observacions i pronòstics meteorològics de més de 4000 aeroports (METAR i TAF).

Les estacions disponibles són els punts grocs i vermells al mapa.

Posi el ratolí al punt desitjat per veure el nom de l'estació.

Feu clic per veure les observacions i els pronòstics meteorològics.

Per canviar el mapa: feu clic els botons verds amb una creu de color negre per apropar; al botó verd amb un guió per allunyar la imatge; o en les fletxes verdes per a mapes adjacents.


METAR-TAF: